sensor_id;sensor_type;location;lat;lon;timestamp;P1;durP1;ratioP1;P2;durP2;ratioP2
24229;SDS011;12362;50.004;8.006;2024-01-30T00:01:50;0.50;;;0.50;;
24229;SDS011;12362;50.004;8.006;2024-01-30T00:04:16;3.80;;;1.33;;
24229;SDS011;12362;50.004;8.006;2024-01-30T00:06:42;2.63;;;0.73;;
24229;SDS011;12362;50.004;8.006;2024-01-30T00:09:08;1.07;;;1.07;;
24229;SDS011;12362;50.004;8.006;2024-01-30T00:11:35;1.80;;;1.70;;
24229;SDS011;12362;50.004;8.006;2024-01-30T00:14:01;0.40;;;0.27;;
24229;SDS011;12362;50.004;8.006;2024-01-30T00:16:26;0.77;;;0.77;;
24229;SDS011;12362;50.004;8.006;2024-01-30T00:18:52;2.00;;;1.27;;
24229;SDS011;12362;50.004;8.006;2024-01-30T00:21:18;1.57;;;1.47;;
24229;SDS011;12362;50.004;8.006;2024-01-30T00:23:44;1.37;;;1.00;;
24229;SDS011;12362;50.004;8.006;2024-01-30T00:26:10;1.63;;;1.10;;
24229;SDS011;12362;50.004;8.006;2024-01-30T00:28:36;4.00;;;1.17;;
24229;SDS011;12362;50.004;8.006;2024-01-30T00:31:11;1.93;;;0.83;;
24229;SDS011;12362;50.004;8.006;2024-01-30T00:33:40;0.47;;;0.43;;
24229;SDS011;12362;50.004;8.006;2024-01-30T00:36:06;1.60;;;1.20;;
24229;SDS011;12362;50.004;8.006;2024-01-30T00:38:33;1.50;;;0.67;;
24229;SDS011;12362;50.004;8.006;2024-01-30T00:40:58;1.00;;;0.73;;
24229;SDS011;12362;50.004;8.006;2024-01-30T00:43:24;0.53;;;0.43;;
24229;SDS011;12362;50.004;8.006;2024-01-30T00:45:52;2.87;;;1.03;;
24229;SDS011;12362;50.004;8.006;2024-01-30T00:48:17;1.83;;;1.13;;
24229;SDS011;12362;50.004;8.006;2024-01-30T00:50:43;1.73;;;0.90;;
24229;SDS011;12362;50.004;8.006;2024-01-30T00:53:08;1.30;;;1.10;;
24229;SDS011;12362;50.004;8.006;2024-01-30T00:55:34;5.20;;;1.53;;
24229;SDS011;12362;50.004;8.006;2024-01-30T00:58:09;0.57;;;0.57;;
24229;SDS011;12362;50.004;8.006;2024-01-30T01:00:35;1.27;;;1.00;;
24229;SDS011;12362;50.004;8.006;2024-01-30T01:03:00;1.97;;;0.87;;
24229;SDS011;12362;50.004;8.006;2024-01-30T01:05:26;2.87;;;1.07;;
24229;SDS011;12362;50.004;8.006;2024-01-30T01:07:52;1.50;;;1.27;;
24229;SDS011;12362;50.004;8.006;2024-01-30T01:10:17;3.80;;;1.63;;
24229;SDS011;12362;50.004;8.006;2024-01-30T01:12:43;0.73;;;0.73;;
24229;SDS011;12362;50.004;8.006;2024-01-30T01:15:09;1.13;;;1.03;;
24229;SDS011;12362;50.004;8.006;2024-01-30T01:17:38;1.60;;;1.13;;
24229;SDS011;12362;50.004;8.006;2024-01-30T01:20:04;1.57;;;1.00;;
24229;SDS011;12362;50.004;8.006;2024-01-30T01:22:31;1.60;;;1.17;;
24229;SDS011;12362;50.004;8.006;2024-01-30T01:24:57;5.00;;;0.83;;
24229;SDS011;12362;50.004;8.006;2024-01-30T01:30:17;0.70;;;0.47;;
24229;SDS011;12362;50.004;8.006;2024-01-30T01:32:49;3.00;;;1.23;;
24229;SDS011;12362;50.004;8.006;2024-01-30T01:35:23;1.17;;;0.83;;
24229;SDS011;12362;50.004;8.006;2024-01-30T01:37:52;1.97;;;1.20;;
24229;SDS011;12362;50.004;8.006;2024-01-30T01:40:22;1.20;;;0.87;;
24229;SDS011;12362;50.004;8.006;2024-01-30T01:42:49;5.70;;;2.57;;
24229;SDS011;12362;50.004;8.006;2024-01-30T01:45:16;3.37;;;1.13;;
24229;SDS011;12362;50.004;8.006;2024-01-30T01:47:41;3.80;;;0.97;;
24229;SDS011;12362;50.004;8.006;2024-01-30T01:50:08;1.40;;;1.03;;
24229;SDS011;12362;50.004;8.006;2024-01-30T01:52:33;11.63;;;1.27;;
24229;SDS011;12362;50.004;8.006;2024-01-30T01:54:59;3.77;;;0.87;;
24229;SDS011;12362;50.004;8.006;2024-01-30T02:00:38;2.40;;;1.23;;
24229;SDS011;12362;50.004;8.006;2024-01-30T02:03:06;0.97;;;0.97;;
24229;SDS011;12362;50.004;8.006;2024-01-30T02:05:35;1.10;;;0.73;;
24229;SDS011;12362;50.004;8.006;2024-01-30T02:08:02;0.60;;;0.60;;
24229;SDS011;12362;50.004;8.006;2024-01-30T02:10:28;3.67;;;1.00;;
24229;SDS011;12362;50.004;8.006;2024-01-30T02:12:53;2.00;;;0.73;;
24229;SDS011;12362;50.004;8.006;2024-01-30T02:15:19;0.50;;;0.50;;
24229;SDS011;12362;50.004;8.006;2024-01-30T02:17:44;0.93;;;0.93;;
24229;SDS011;12362;50.004;8.006;2024-01-30T02:20:10;2.17;;;1.50;;
24229;SDS011;12362;50.004;8.006;2024-01-30T02:22:35;3.00;;;1.03;;
24229;SDS011;12362;50.004;8.006;2024-01-30T02:25:02;1.60;;;0.73;;
24229;SDS011;12362;50.004;8.006;2024-01-30T02:27:28;2.00;;;1.07;;
24229;SDS011;12362;50.004;8.006;2024-01-30T02:29:54;1.37;;;1.27;;
24229;SDS011;12362;50.004;8.006;2024-01-30T02:32:19;2.37;;;0.70;;
24229;SDS011;12362;50.004;8.006;2024-01-30T02:34:44;1.13;;;0.80;;
24229;SDS011;12362;50.004;8.006;2024-01-30T02:37:10;1.13;;;0.80;;
24229;SDS011;12362;50.004;8.006;2024-01-30T02:39:35;2.83;;;1.70;;
24229;SDS011;12362;50.004;8.006;2024-01-30T02:42:01;2.10;;;0.93;;
24229;SDS011;12362;50.004;8.006;2024-01-30T02:44:27;0.70;;;0.50;;
24229;SDS011;12362;50.004;8.006;2024-01-30T02:46:52;2.27;;;0.87;;
24229;SDS011;12362;50.004;8.006;2024-01-30T02:49:19;0.43;;;0.43;;
24229;SDS011;12362;50.004;8.006;2024-01-30T02:51:45;1.00;;;0.70;;
24229;SDS011;12362;50.004;8.006;2024-01-30T02:54:10;1.93;;;1.07;;
24229;SDS011;12362;50.004;8.006;2024-01-30T02:56:36;2.57;;;1.23;;
24229;SDS011;12362;50.004;8.006;2024-01-30T02:59:01;1.13;;;0.90;;
24229;SDS011;12362;50.004;8.006;2024-01-30T03:01:26;0.70;;;0.60;;
24229;SDS011;12362;50.004;8.006;2024-01-30T03:03:52;0.60;;;0.53;;
24229;SDS011;12362;50.004;8.006;2024-01-30T03:06:17;2.10;;;1.20;;
24229;SDS011;12362;50.004;8.006;2024-01-30T03:08:45;0.43;;;0.43;;
24229;SDS011;12362;50.004;8.006;2024-01-30T03:11:10;2.07;;;0.93;;
24229;SDS011;12362;50.004;8.006;2024-01-30T03:13:36;2.50;;;0.90;;
24229;SDS011;12362;50.004;8.006;2024-01-30T03:16:01;2.63;;;1.37;;
24229;SDS011;12362;50.004;8.006;2024-01-30T03:18:27;3.20;;;0.80;;
24229;SDS011;12362;50.004;8.006;2024-01-30T03:20:52;2.43;;;1.20;;
24229;SDS011;12362;50.004;8.006;2024-01-30T03:23:17;1.07;;;0.83;;
24229;SDS011;12362;50.004;8.006;2024-01-30T03:25:43;1.60;;;0.97;;
24229;SDS011;12362;50.004;8.006;2024-01-30T03:28:18;0.90;;;0.87;;
24229;SDS011;12362;50.004;8.006;2024-01-30T03:30:43;1.17;;;1.07;;
24229;SDS011;12362;50.004;8.006;2024-01-30T03:33:08;0.50;;;0.50;;
24229;SDS011;12362;50.004;8.006;2024-01-30T03:35:34;2.23;;;1.63;;
24229;SDS011;12362;50.004;8.006;2024-01-30T03:37:59;3.80;;;1.67;;
24229;SDS011;12362;50.004;8.006;2024-01-30T03:40:25;3.37;;;1.37;;
24229;SDS011;12362;50.004;8.006;2024-01-30T03:42:50;1.50;;;0.90;;
24229;SDS011;12362;50.004;8.006;2024-01-30T03:45:15;1.87;;;1.23;;
24229;SDS011;12362;50.004;8.006;2024-01-30T03:47:43;2.30;;;0.97;;
24229;SDS011;12362;50.004;8.006;2024-01-30T03:50:08;0.53;;;0.40;;
24229;SDS011;12362;50.004;8.006;2024-01-30T03:52:34;1.17;;;1.10;;
24229;SDS011;12362;50.004;8.006;2024-01-30T03:55:00;1.77;;;0.83;;
24229;SDS011;12362;50.004;8.006;2024-01-30T03:57:25;1.80;;;1.10;;
24229;SDS011;12362;50.004;8.006;2024-01-30T03:59:51;0.90;;;0.87;;
24229;SDS011;12362;50.004;8.006;2024-01-30T04:02:16;1.03;;;0.53;;
24229;SDS011;12362;50.004;8.006;2024-01-30T04:04:43;1.27;;;0.93;;
24229;SDS011;12362;50.004;8.006;2024-01-30T04:07:08;0.43;;;0.43;;
24229;SDS011;12362;50.004;8.006;2024-01-30T04:09:33;3.30;;;1.47;;
24229;SDS011;12362;50.004;8.006;2024-01-30T04:11:59;0.63;;;0.63;;
24229;SDS011;12362;50.004;8.006;2024-01-30T04:14:24;0.83;;;0.83;;
24229;SDS011;12362;50.004;8.006;2024-01-30T04:16:50;21.87;;;1.77;;
24229;SDS011;12362;50.004;8.006;2024-01-30T04:19:15;1.87;;;1.60;;
24229;SDS011;12362;50.004;8.006;2024-01-30T04:21:41;1.43;;;1.27;;
24229;SDS011;12362;50.004;8.006;2024-01-30T04:24:06;1.50;;;1.40;;
24229;SDS011;12362;50.004;8.006;2024-01-30T04:26:31;1.63;;;1.10;;
24229;SDS011;12362;50.004;8.006;2024-01-30T04:28:57;1.13;;;0.73;;
24229;SDS011;12362;50.004;8.006;2024-01-30T04:31:22;0.67;;;0.67;;
24229;SDS011;12362;50.004;8.006;2024-01-30T04:33:48;4.00;;;0.97;;
24229;SDS011;12362;50.004;8.006;2024-01-30T04:36:13;1.33;;;0.80;;
24229;SDS011;12362;50.004;8.006;2024-01-30T04:38:39;1.13;;;0.50;;
24229;SDS011;12362;50.004;8.006;2024-01-30T04:41:04;2.93;;;1.13;;
24229;SDS011;12362;50.004;8.006;2024-01-30T04:43:30;1.70;;;0.90;;
24229;SDS011;12362;50.004;8.006;2024-01-30T04:45:56;2.07;;;1.40;;
24229;SDS011;12362;50.004;8.006;2024-01-30T04:48:21;2.43;;;1.30;;
24229;SDS011;12362;50.004;8.006;2024-01-30T04:50:47;0.97;;;0.70;;
24229;SDS011;12362;50.004;8.006;2024-01-30T04:53:12;0.87;;;0.77;;
24229;SDS011;12362;50.004;8.006;2024-01-30T04:55:38;3.20;;;1.07;;
24229;SDS011;12362;50.004;8.006;2024-01-30T05:00:51;0.97;;;0.97;;
24229;SDS011;12362;50.004;8.006;2024-01-30T05:03:17;0.97;;;0.97;;
24229;SDS011;12362;50.004;8.006;2024-01-30T05:05:44;5.27;;;1.30;;
24229;SDS011;12362;50.004;8.006;2024-01-30T05:08:09;1.10;;;1.00;;
24229;SDS011;12362;50.004;8.006;2024-01-30T05:10:35;11.30;;;1.43;;
24229;SDS011;12362;50.004;8.006;2024-01-30T05:13:00;0.70;;;0.70;;
24229;SDS011;12362;50.004;8.006;2024-01-30T05:15:25;0.50;;;0.50;;
24229;SDS011;12362;50.004;8.006;2024-01-30T05:17:51;2.70;;;1.00;;
24229;SDS011;12362;50.004;8.006;2024-01-30T05:20:16;1.80;;;1.60;;
24229;SDS011;12362;50.004;8.006;2024-01-30T05:22:43;3.50;;;1.80;;
24229;SDS011;12362;50.004;8.006;2024-01-30T05:25:10;2.30;;;1.20;;
24229;SDS011;12362;50.004;8.006;2024-01-30T05:27:49;2.30;;;0.70;;
24229;SDS011;12362;50.004;8.006;2024-01-30T05:30:15;2.43;;;2.00;;
24229;SDS011;12362;50.004;8.006;2024-01-30T05:32:40;2.10;;;1.50;;
24229;SDS011;12362;50.004;8.006;2024-01-30T05:35:06;1.20;;;0.80;;
24229;SDS011;12362;50.004;8.006;2024-01-30T05:37:33;0.40;;;0.40;;
24229;SDS011;12362;50.004;8.006;2024-01-30T05:39:58;3.00;;;0.83;;
24229;SDS011;12362;50.004;8.006;2024-01-30T05:42:24;0.60;;;0.60;;
24229;SDS011;12362;50.004;8.006;2024-01-30T05:44:50;1.07;;;0.97;;
24229;SDS011;12362;50.004;8.006;2024-01-30T05:47:15;0.50;;;0.50;;
24229;SDS011;12362;50.004;8.006;2024-01-30T05:49:41;1.73;;;0.70;;
24229;SDS011;12362;50.004;8.006;2024-01-30T05:52:07;0.40;;;0.40;;
24229;SDS011;12362;50.004;8.006;2024-01-30T05:54:32;0.87;;;0.87;;
24229;SDS011;12362;50.004;8.006;2024-01-30T06:00:41;1.60;;;1.13;;
24229;SDS011;12362;50.004;8.006;2024-01-30T06:03:07;1.33;;;1.17;;
24229;SDS011;12362;50.004;8.006;2024-01-30T06:05:32;1.67;;;1.33;;
24229;SDS011;12362;50.004;8.006;2024-01-30T06:07:58;1.80;;;1.03;;
24229;SDS011;12362;50.004;8.006;2024-01-30T06:10:23;0.60;;;0.53;;
24229;SDS011;12362;50.004;8.006;2024-01-30T06:12:49;1.03;;;0.93;;
24229;SDS011;12362;50.004;8.006;2024-01-30T06:15:14;1.10;;;0.77;;
24229;SDS011;12362;50.004;8.006;2024-01-30T06:17:40;0.83;;;0.80;;
24229;SDS011;12362;50.004;8.006;2024-01-30T06:20:05;1.07;;;1.07;;
24229;SDS011;12362;50.004;8.006;2024-01-30T06:22:31;3.03;;;1.50;;
24229;SDS011;12362;50.004;8.006;2024-01-30T06:24:57;0.97;;;0.83;;
24229;SDS011;12362;50.004;8.006;2024-01-30T06:30:10;2.63;;;1.33;;
24229;SDS011;12362;50.004;8.006;2024-01-30T06:32:36;1.43;;;0.80;;
24229;SDS011;12362;50.004;8.006;2024-01-30T06:35:01;1.80;;;0.93;;
24229;SDS011;12362;50.004;8.006;2024-01-30T06:37:27;0.83;;;0.53;;
24229;SDS011;12362;50.004;8.006;2024-01-30T06:39:52;1.10;;;0.93;;
24229;SDS011;12362;50.004;8.006;2024-01-30T06:42:18;3.27;;;1.77;;
24229;SDS011;12362;50.004;8.006;2024-01-30T06:44:44;0.40;;;0.40;;
24229;SDS011;12362;50.004;8.006;2024-01-30T06:47:12;1.13;;;1.00;;
24229;SDS011;12362;50.004;8.006;2024-01-30T06:49:38;3.57;;;1.17;;
24229;SDS011;12362;50.004;8.006;2024-01-30T06:52:06;0.80;;;0.80;;
24229;SDS011;12362;50.004;8.006;2024-01-30T06:54:32;1.93;;;1.23;;
24229;SDS011;12362;50.004;8.006;2024-01-30T06:56:58;3.17;;;1.13;;
24229;SDS011;12362;50.004;8.006;2024-01-30T06:59:24;0.70;;;0.70;;
24229;SDS011;12362;50.004;8.006;2024-01-30T07:01:49;0.43;;;0.43;;
24229;SDS011;12362;50.004;8.006;2024-01-30T07:04:15;2.83;;;1.40;;
24229;SDS011;12362;50.004;8.006;2024-01-30T07:06:41;1.37;;;1.03;;
24229;SDS011;12362;50.004;8.006;2024-01-30T07:09:06;2.30;;;0.83;;
24229;SDS011;12362;50.004;8.006;2024-01-30T07:11:32;1.27;;;0.83;;
24229;SDS011;12362;50.004;8.006;2024-01-30T07:13:57;4.23;;;1.53;;
24229;SDS011;12362;50.004;8.006;2024-01-30T07:16:23;1.50;;;0.80;;
24229;SDS011;12362;50.004;8.006;2024-01-30T07:18:49;5.30;;;1.17;;
24229;SDS011;12362;50.004;8.006;2024-01-30T07:21:15;4.50;;;1.23;;
24229;SDS011;12362;50.004;8.006;2024-01-30T07:23:40;1.07;;;0.70;;
24229;SDS011;12362;50.004;8.006;2024-01-30T07:26:07;2.17;;;1.53;;
24229;SDS011;12362;50.004;8.006;2024-01-30T07:28:33;1.37;;;0.87;;
24229;SDS011;12362;50.004;8.006;2024-01-30T07:30:59;0.97;;;0.80;;
24229;SDS011;12362;50.004;8.006;2024-01-30T07:33:25;1.73;;;1.33;;
24229;SDS011;12362;50.004;8.006;2024-01-30T07:35:54;1.57;;;1.07;;
24229;SDS011;12362;50.004;8.006;2024-01-30T07:38:20;0.57;;;0.37;;
24229;SDS011;12362;50.004;8.006;2024-01-30T07:40:45;0.97;;;0.77;;
24229;SDS011;12362;50.004;8.006;2024-01-30T07:43:12;2.30;;;1.40;;
24229;SDS011;12362;50.004;8.006;2024-01-30T07:45:37;3.63;;;1.40;;
24229;SDS011;12362;50.004;8.006;2024-01-30T07:48:04;1.03;;;0.53;;
24229;SDS011;12362;50.004;8.006;2024-01-30T07:50:30;2.37;;;1.43;;
24229;SDS011;12362;50.004;8.006;2024-01-30T07:52:56;1.43;;;1.30;;
24229;SDS011;12362;50.004;8.006;2024-01-30T07:55:22;1.43;;;1.30;;
24229;SDS011;12362;50.004;8.006;2024-01-30T07:57:53;0.83;;;0.53;;
24229;SDS011;12362;50.004;8.006;2024-01-30T08:00:20;0.90;;;0.80;;
24229;SDS011;12362;50.004;8.006;2024-01-30T08:02:46;1.80;;;1.37;;
24229;SDS011;12362;50.004;8.006;2024-01-30T08:05:11;1.33;;;0.70;;
24229;SDS011;12362;50.004;8.006;2024-01-30T08:07:37;3.63;;;1.33;;
24229;SDS011;12362;50.004;8.006;2024-01-30T08:10:02;2.43;;;1.70;;
24229;SDS011;12362;50.004;8.006;2024-01-30T08:12:28;3.77;;;1.70;;
24229;SDS011;12362;50.004;8.006;2024-01-30T08:14:54;3.60;;;0.73;;
24229;SDS011;12362;50.004;8.006;2024-01-30T08:17:20;0.63;;;0.63;;
24229;SDS011;12362;50.004;8.006;2024-01-30T08:19:45;1.97;;;1.70;;
24229;SDS011;12362;50.004;8.006;2024-01-30T08:22:11;1.73;;;1.47;;
24229;SDS011;12362;50.004;8.006;2024-01-30T08:24:37;10.10;;;1.83;;
24229;SDS011;12362;50.004;8.006;2024-01-30T08:27:08;1.57;;;1.00;;
24229;SDS011;12362;50.004;8.006;2024-01-30T08:29:35;6.33;;;2.13;;
24229;SDS011;12362;50.004;8.006;2024-01-30T08:32:01;6.27;;;1.73;;
24229;SDS011;12362;50.004;8.006;2024-01-30T08:34:26;4.43;;;1.57;;
24229;SDS011;12362;50.004;8.006;2024-01-30T08:36:52;0.80;;;0.80;;
24229;SDS011;12362;50.004;8.006;2024-01-30T08:39:18;2.80;;;1.40;;
24229;SDS011;12362;50.004;8.006;2024-01-30T08:41:43;2.73;;;1.83;;
24229;SDS011;12362;50.004;8.006;2024-01-30T08:44:09;5.87;;;2.03;;
24229;SDS011;12362;50.004;8.006;2024-01-30T08:46:36;3.50;;;1.40;;
24229;SDS011;12362;50.004;8.006;2024-01-30T08:49:01;1.20;;;1.00;;
24229;SDS011;12362;50.004;8.006;2024-01-30T08:51:27;5.97;;;2.10;;
24229;SDS011;12362;50.004;8.006;2024-01-30T08:53:53;3.53;;;1.70;;
24229;SDS011;12362;50.004;8.006;2024-01-30T08:56:19;3.90;;;2.27;;
24229;SDS011;12362;50.004;8.006;2024-01-30T08:58:44;2.47;;;1.43;;
24229;SDS011;12362;50.004;8.006;2024-01-30T09:01:10;2.83;;;1.40;;
24229;SDS011;12362;50.004;8.006;2024-01-30T09:03:35;2.10;;;1.37;;
24229;SDS011;12362;50.004;8.006;2024-01-30T09:06:02;3.20;;;1.33;;
24229;SDS011;12362;50.004;8.006;2024-01-30T09:08:28;3.80;;;2.23;;
24229;SDS011;12362;50.004;8.006;2024-01-30T09:10:53;4.27;;;1.77;;
24229;SDS011;12362;50.004;8.006;2024-01-30T09:13:19;5.67;;;2.03;;
24229;SDS011;12362;50.004;8.006;2024-01-30T09:15:45;1.87;;;1.40;;
24229;SDS011;12362;50.004;8.006;2024-01-30T09:18:10;5.20;;;2.07;;
24229;SDS011;12362;50.004;8.006;2024-01-30T09:20:36;3.40;;;1.77;;
24229;SDS011;12362;50.004;8.006;2024-01-30T09:23:01;3.10;;;2.10;;
24229;SDS011;12362;50.004;8.006;2024-01-30T09:25:26;4.43;;;2.33;;
24229;SDS011;12362;50.004;8.006;2024-01-30T09:27:52;6.23;;;1.60;;
24229;SDS011;12362;50.004;8.006;2024-01-30T09:30:17;4.27;;;2.00;;
24229;SDS011;12362;50.004;8.006;2024-01-30T09:32:43;3.93;;;2.67;;
24229;SDS011;12362;50.004;8.006;2024-01-30T09:35:08;3.20;;;2.03;;
24229;SDS011;12362;50.004;8.006;2024-01-30T09:37:34;2.63;;;2.20;;
24229;SDS011;12362;50.004;8.006;2024-01-30T09:39:59;3.20;;;2.40;;
24229;SDS011;12362;50.004;8.006;2024-01-30T09:42:33;2.83;;;1.13;;
24229;SDS011;12362;50.004;8.006;2024-01-30T09:45:03;7.20;;;2.20;;
24229;SDS011;12362;50.004;8.006;2024-01-30T09:47:33;3.00;;;2.23;;
24229;SDS011;12362;50.004;8.006;2024-01-30T09:50:06;5.13;;;2.10;;
24229;SDS011;12362;50.004;8.006;2024-01-30T09:52:33;4.70;;;2.27;;
24229;SDS011;12362;50.004;8.006;2024-01-30T09:54:59;3.13;;;2.80;;
24229;SDS011;12362;50.004;8.006;2024-01-30T09:57:25;6.17;;;3.07;;
24229;SDS011;12362;50.004;8.006;2024-01-30T09:59:51;3.40;;;1.77;;
24229;SDS011;12362;50.004;8.006;2024-01-30T10:02:20;2.30;;;1.63;;
24229;SDS011;12362;50.004;8.006;2024-01-30T10:04:47;9.10;;;3.50;;
24229;SDS011;12362;50.004;8.006;2024-01-30T10:07:13;1.93;;;1.60;;
24229;SDS011;12362;50.004;8.006;2024-01-30T10:09:39;2.13;;;1.30;;
24229;SDS011;12362;50.004;8.006;2024-01-30T10:12:05;3.63;;;2.13;;
24229;SDS011;12362;50.004;8.006;2024-01-30T10:14:31;4.93;;;1.97;;
24229;SDS011;12362;50.004;8.006;2024-01-30T10:17:00;5.63;;;2.83;;
24229;SDS011;12362;50.004;8.006;2024-01-30T10:19:26;10.03;;;2.63;;
24229;SDS011;12362;50.004;8.006;2024-01-30T10:21:52;3.93;;;1.90;;
24229;SDS011;12362;50.004;8.006;2024-01-30T10:24:18;1.13;;;1.03;;
24229;SDS011;12362;50.004;8.006;2024-01-30T10:26:43;5.67;;;2.53;;
24229;SDS011;12362;50.004;8.006;2024-01-30T10:29:09;3.63;;;1.80;;
24229;SDS011;12362;50.004;8.006;2024-01-30T10:31:35;7.53;;;2.47;;
24229;SDS011;12362;50.004;8.006;2024-01-30T10:34:01;4.40;;;1.33;;
24229;SDS011;12362;50.004;8.006;2024-01-30T10:36:38;4.90;;;2.07;;
24229;SDS011;12362;50.004;8.006;2024-01-30T10:39:08;4.73;;;1.93;;
24229;SDS011;12362;50.004;8.006;2024-01-30T10:41:35;7.50;;;2.47;;
24229;SDS011;12362;50.004;8.006;2024-01-30T10:44:09;3.30;;;1.60;;
24229;SDS011;12362;50.004;8.006;2024-01-30T10:46:35;7.13;;;2.23;;
24229;SDS011;12362;50.004;8.006;2024-01-30T10:49:03;5.73;;;2.33;;
24229;SDS011;12362;50.004;8.006;2024-01-30T10:51:29;3.23;;;1.87;;
24229;SDS011;12362;50.004;8.006;2024-01-30T10:53:57;2.80;;;1.50;;
24229;SDS011;12362;50.004;8.006;2024-01-30T10:56:23;2.70;;;1.50;;
24229;SDS011;12362;50.004;8.006;2024-01-30T10:58:49;3.33;;;1.23;;
24229;SDS011;12362;50.004;8.006;2024-01-30T11:01:18;3.70;;;2.07;;
24229;SDS011;12362;50.004;8.006;2024-01-30T11:03:44;7.17;;;1.40;;
24229;SDS011;12362;50.004;8.006;2024-01-30T11:06:11;2.67;;;2.10;;
24229;SDS011;12362;50.004;8.006;2024-01-30T11:08:43;4.70;;;2.07;;
24229;SDS011;12362;50.004;8.006;2024-01-30T11:11:09;5.53;;;2.13;;
24229;SDS011;12362;50.004;8.006;2024-01-30T11:13:35;2.50;;;2.13;;
24229;SDS011;12362;50.004;8.006;2024-01-30T11:16:04;3.60;;;1.97;;
24229;SDS011;12362;50.004;8.006;2024-01-30T11:18:30;4.40;;;2.17;;
24229;SDS011;12362;50.004;8.006;2024-01-30T11:20:57;5.37;;;1.97;;
24229;SDS011;12362;50.004;8.006;2024-01-30T11:23:23;11.33;;;2.43;;
24229;SDS011;12362;50.004;8.006;2024-01-30T11:25:52;4.87;;;2.07;;
24229;SDS011;12362;50.004;8.006;2024-01-30T11:28:17;5.63;;;2.63;;
24229;SDS011;12362;50.004;8.006;2024-01-30T11:30:44;4.93;;;2.10;;
24229;SDS011;12362;50.004;8.006;2024-01-30T11:33:14;3.70;;;1.97;;
24229;SDS011;12362;50.004;8.006;2024-01-30T11:35:49;3.57;;;2.30;;
24229;SDS011;12362;50.004;8.006;2024-01-30T11:38:15;5.70;;;2.27;;
24229;SDS011;12362;50.004;8.006;2024-01-30T11:40:41;6.90;;;2.33;;
24229;SDS011;12362;50.004;8.006;2024-01-30T11:43:07;2.80;;;1.90;;
24229;SDS011;12362;50.004;8.006;2024-01-30T11:45:34;7.13;;;2.33;;
24229;SDS011;12362;50.004;8.006;2024-01-30T11:48:01;9.10;;;2.67;;
24229;SDS011;12362;50.004;8.006;2024-01-30T11:50:28;5.00;;;2.37;;
24229;SDS011;12362;50.004;8.006;2024-01-30T11:52:55;7.47;;;2.13;;
24229;SDS011;12362;50.004;8.006;2024-01-30T11:55:21;3.77;;;2.10;;
24229;SDS011;12362;50.004;8.006;2024-01-30T11:57:46;5.77;;;2.53;;
24229;SDS011;12362;50.004;8.006;2024-01-30T12:00:15;4.83;;;2.67;;
24229;SDS011;12362;50.004;8.006;2024-01-30T12:02:42;5.00;;;1.87;;
24229;SDS011;12362;50.004;8.006;2024-01-30T12:05:08;8.83;;;1.93;;
24229;SDS011;12362;50.004;8.006;2024-01-30T12:07:34;8.47;;;2.50;;
24229;SDS011;12362;50.004;8.006;2024-01-30T12:10:00;4.78;;;1.85;;
24229;SDS011;12362;50.004;8.006;2024-01-30T12:12:26;6.83;;;2.70;;
24229;SDS011;12362;50.004;8.006;2024-01-30T12:14:53;5.40;;;2.97;;
24229;SDS011;12362;50.004;8.006;2024-01-30T12:17:26;5.73;;;2.07;;
24229;SDS011;12362;50.004;8.006;2024-01-30T12:20:09;3.92;;;2.00;;
24229;SDS011;12362;50.004;8.006;2024-01-30T12:22:37;3.42;;;1.65;;
24229;SDS011;12362;50.004;8.006;2024-01-30T12:27:39;2.65;;;2.17;;
24229;SDS011;12362;50.004;8.006;2024-01-30T12:30:07;6.63;;;2.40;;
24229;SDS011;12362;50.004;8.006;2024-01-30T12:32:41;3.87;;;1.90;;
24229;SDS011;12362;50.004;8.006;2024-01-30T12:35:09;10.10;;;2.53;;
24229;SDS011;12362;50.004;8.006;2024-01-30T12:37:35;4.63;;;2.30;;
24229;SDS011;12362;50.004;8.006;2024-01-30T12:40:01;4.83;;;2.00;;
24229;SDS011;12362;50.004;8.006;2024-01-30T12:42:27;3.70;;;2.13;;
24229;SDS011;12362;50.004;8.006;2024-01-30T12:44:52;3.08;;;2.08;;
24229;SDS011;12362;50.004;8.006;2024-01-30T12:47:18;2.97;;;2.35;;
24229;SDS011;12362;50.004;8.006;2024-01-30T12:49:46;3.88;;;1.73;;
24229;SDS011;12362;50.004;8.006;2024-01-30T12:52:13;3.78;;;2.60;;
24229;SDS011;12362;50.004;8.006;2024-01-30T12:54:39;5.10;;;2.72;;
24229;SDS011;12362;50.004;8.006;2024-01-30T12:57:05;5.60;;;3.03;;
24229;SDS011;12362;50.004;8.006;2024-01-30T12:59:31;5.75;;;2.08;;
24229;SDS011;12362;50.004;8.006;2024-01-30T13:01:56;4.80;;;2.10;;
24229;SDS011;12362;50.004;8.006;2024-01-30T13:04:22;5.18;;;2.05;;
24229;SDS011;12362;50.004;8.006;2024-01-30T13:06:48;5.85;;;1.95;;
24229;SDS011;12362;50.004;8.006;2024-01-30T13:09:13;3.47;;;1.65;;
24229;SDS011;12362;50.004;8.006;2024-01-30T13:11:39;4.50;;;1.83;;
24229;SDS011;12362;50.004;8.006;2024-01-30T13:14:04;3.22;;;2.13;;
24229;SDS011;12362;50.004;8.006;2024-01-30T13:16:30;2.85;;;1.80;;
24229;SDS011;12362;50.004;8.006;2024-01-30T13:18:55;4.07;;;2.20;;
24229;SDS011;12362;50.004;8.006;2024-01-30T13:21:21;4.80;;;1.60;;
24229;SDS011;12362;50.004;8.006;2024-01-30T13:23:46;4.50;;;2.20;;
24229;SDS011;12362;50.004;8.006;2024-01-30T13:26:12;4.50;;;2.20;;
24229;SDS011;12362;50.004;8.006;2024-01-30T13:28:37;4.55;;;2.17;;
24229;SDS011;12362;50.004;8.006;2024-01-30T13:31:03;6.22;;;2.10;;
24229;SDS011;12362;50.004;8.006;2024-01-30T13:33:30;4.93;;;2.08;;
24229;SDS011;12362;50.004;8.006;2024-01-30T13:35:55;7.78;;;2.33;;
24229;SDS011;12362;50.004;8.006;2024-01-30T13:38:21;7.78;;;2.85;;
24229;SDS011;12362;50.004;8.006;2024-01-30T13:40:46;5.05;;;2.28;;
24229;SDS011;12362;50.004;8.006;2024-01-30T13:43:12;4.70;;;2.10;;
24229;SDS011;12362;50.004;8.006;2024-01-30T13:45:37;10.07;;;2.05;;
24229;SDS011;12362;50.004;8.006;2024-01-30T13:48:03;2.60;;;2.10;;
24229;SDS011;12362;50.004;8.006;2024-01-30T13:50:28;2.35;;;1.20;;
24229;SDS011;12362;50.004;8.006;2024-01-30T13:52:54;6.47;;;1.75;;
24229;SDS011;12362;50.004;8.006;2024-01-30T13:55:20;2.35;;;1.27;;
24229;SDS011;12362;50.004;8.006;2024-01-30T13:57:45;2.22;;;1.48;;
24229;SDS011;12362;50.004;8.006;2024-01-30T14:00:13;5.55;;;2.58;;
24229;SDS011;12362;50.004;8.006;2024-01-30T14:02:41;2.95;;;1.98;;
24229;SDS011;12362;50.004;8.006;2024-01-30T14:05:09;5.95;;;1.77;;
24229;SDS011;12362;50.004;8.006;2024-01-30T14:07:35;6.32;;;3.45;;
24229;SDS011;12362;50.004;8.006;2024-01-30T14:10:02;4.53;;;1.60;;
24229;SDS011;12362;50.004;8.006;2024-01-30T14:12:28;8.98;;;2.03;;
24229;SDS011;12362;50.004;8.006;2024-01-30T14:14:55;3.60;;;2.08;;
24229;SDS011;12362;50.004;8.006;2024-01-30T14:17:20;6.20;;;1.70;;
24229;SDS011;12362;50.004;8.006;2024-01-30T14:19:46;3.08;;;1.85;;
24229;SDS011;12362;50.004;8.006;2024-01-30T14:22:11;4.85;;;2.55;;
24229;SDS011;12362;50.004;8.006;2024-01-30T14:24:39;6.80;;;1.80;;
24229;SDS011;12362;50.004;8.006;2024-01-30T14:27:05;2.85;;;1.65;;
24229;SDS011;12362;50.004;8.006;2024-01-30T14:29:33;3.67;;;2.15;;
24229;SDS011;12362;50.004;8.006;2024-01-30T14:31:59;5.20;;;2.22;;
24229;SDS011;12362;50.004;8.006;2024-01-30T14:34:25;5.00;;;1.92;;
24229;SDS011;12362;50.004;8.006;2024-01-30T14:36:50;11.60;;;1.83;;
24229;SDS011;12362;50.004;8.006;2024-01-30T14:39:16;4.95;;;1.85;;
24229;SDS011;12362;50.004;8.006;2024-01-30T14:41:41;4.00;;;1.50;;
24229;SDS011;12362;50.004;8.006;2024-01-30T14:44:09;4.20;;;1.58;;
24229;SDS011;12362;50.004;8.006;2024-01-30T14:46:35;3.25;;;1.55;;
24229;SDS011;12362;50.004;8.006;2024-01-30T14:49:02;3.47;;;1.52;;
24229;SDS011;12362;50.004;8.006;2024-01-30T14:51:30;1.73;;;1.13;;
24229;SDS011;12362;50.004;8.006;2024-01-30T14:53:56;2.58;;;1.55;;
24229;SDS011;12362;50.004;8.006;2024-01-30T14:56:22;8.30;;;1.90;;
24229;SDS011;12362;50.004;8.006;2024-01-30T14:59:11;4.93;;;2.20;;
24229;SDS011;12362;50.004;8.006;2024-01-30T15:01:36;6.32;;;1.42;;